Airfield :
LOGIN :

Register | Disclaimer

   EN    FR    IT 

 










Legend :    VFR   Marginal VFR   IFR   Intensive IFR   Very Intensive IFR
Visi :
Ceiling :
>= 8 km
>= 3000ft
5 to 8 km
1000 to 3000 ft
1500m to 5 km
500 to 1000 ft
800 to 1500m
200 to 500 ft
< 800m
< 200 ft
Symbols :   Thunderstorms  Fog  Heavy snow  Heavy precipitations  Wind > 20 kt
SIGMETs :     Misc.  Thunderstorms  Icing  Turbulence  Mountain Waves  Volcanic Ashes







- Airport Elevation : 1046 ft
- IATA code : NUE


EDDN - Nuremberg

CURRENT METAR :
  • 171420Z 07006KT 010V110 9999 BKN027 M02/M07 Q1032 R28/49//95 NOSIG

EXPIRED METARs :
  • 171350Z 11006KT 9999 SCT026 M02/M07 Q1032 R28/49//95 NOSIG
  • 171320Z 09008KT 9999 SCT026 M02/M06 Q1032 R28/49//95 NOSIG
  • 171250Z 08007KT 030V120 9999 SCT026 M02/M07 Q1032 R28/49//95 NOSIG
  • 171220Z 08008KT 030V110 9999 SCT023 M02/M07 Q1032 R28/49//95 NOSIG
  • 171150Z 06007KT 360V120 9999 SCT023 M03/M07 Q1032 R28/49//95 NOSIG

TAF TAF EDDN
Valid from the 17 at 12:00 until the 18 at 12:00 UTC


171100Z 1712/1812 04004KT 9999 SCT025
BECMG 1809/1811 07009KT
PROB30
TEMPO 1809/1812 BKN010
No reported NOTAMs for that airfield.
1 SIGMET reported for the München FIR (EDMM) :
 
Severe turbulence
EDMM SIGMET 2 VALID 171300/171700 EDZM
EDMM MUNCHEN FIR SEV TURB FCST WI N5117 E01504 - N5048 E01450 - N4910 E01313 - N4809 E00935 - N4958 E01042 - N5117 E01504 FL180/245 MOV SE NC=



MET'MAP, your aeronautical weather chart ! - Copyright ORBIFLY December 2007 - Disclaimer

ORBIFLY MET'MAP TEAM :

Programming & Development : Alexandra Zaïnal
Concept & Development : Baudouin d'Aumeries
Co-Development & Prog : Marc-Olivier Méhu
Technical & hardware support : Manuel Goepfert

Contact : metmap@orbifly.com




SOURCES & CREDITS :

   NOAA